Myrtle Beach International Airport
KMYR : rendu visible

Aérodrome :











RETROUVEZ-NOUS SUR...

 
LOGIN :

S'inscrire | Disclaimer

   EN    FR    IT 

 









Légende :    VFR   VFR Marginal   IFR   IFR Intensif   IFR Très Intensif
Visi : 
Plafond : 
>= 8 km
>= 3000ft
5 à 8 km
1000 à 3000 ft
1500m à 5 km
500 à 1000 ft
800 à 1500m
200 à 500 ft
< 800m
< 200 ft
Symboles :   Orages  Brouillard  Fortes neiges  Fortes précipitations  Vent > 20 kt






- Altitude de l'aérodrome : 25 ft
- Code IATA : MYR


KMYR - Myrtle Beach International

DERNIER METAR :
  • 241056Z AUTO 00000KT 10SM OVC100 10/07 A3012 RMK AO2 SLP200 T01000067

METARs EXPIRÉS :
  • 240956Z AUTO 00000KT 10SM FEW085 OVC110 10/07 A3012 RMK AO2 SLP199 T01000072
  • 240856Z AUTO 00000KT 10SM OVC110 11/07 A3012 RMK AO2 SLP200 T01060067 56020

TAF KMYR
Valide du 24 à 12h jusqu'au 25 à 12h UTC


241120Z 2412/2512 00000KT P6SM BKN090
FM250400 14007KT 4SM -RA BR OVC020
FM250600 16007KT 5SM -RA BR OVC015 WS020/19040KT
FM250800 19009KT 5SM -RA BR OVC009
FM250900 20009KT 6SM -RA BR OVC010 WS020/20040KT



MET'MAP, la Météo Aéronautique d'un coup d'oeil ! - Copyright ORBIFLY Décembre 2007 - Disclaimer

ORBIFLY MET'MAP TEAM :

Programmation & Développement : Alexandra Zaïnal
Sur une idée originale de : Baudouin d'Aumeries
Assistance à la programmation : Marc-Olivier Méhu
Soutien technique & logistique : Manuel Goepfert

Contact : metmap@orbifly.com




SOURCES & CREDITS :

   NOAA       Earth
Advisory